Time;durP1;ratioP1;P1;durP2;ratioP2;P2;SDS_P1;SDS_P2;PMS_P1;PMS_P2;Temp;Humidity;BMP_temperature;BMP_pressure;BME280_temperature;BME280_humidity;BME280_pressure;Samples;Min_cycle;Max_cycle;Signal;HPM_P1;HPM_P2
2022/08/13 00:01:25;;;;;;;1.65;1.08;;;;;;;19.54;86.77;101844.19;5077440;28;20258;-70
2022/08/13 00:03:53;;;;;;;1.52;0.93;;;;;;;19.43;84.32;101820.56;5072660;28;20017;-70
2022/08/13 00:09:09;;;;;;;4.93;1.10;;;;;;;19.59;83.05;101836.44;5071213;28;20033;-71
2022/08/13 00:14:22;;;;;;;1.35;1.13;;;;;;;19.66;79.96;101839.19;5069297;28;20389;-71
2022/08/13 00:16:49;;;;;;;3.47;1.27;;;;;;;19.65;82.95;101843.72;5072111;28;20028;-71
2022/08/13 00:19:14;;;;;;;1.50;0.73;;;;;;;19.63;82.42;101844.94;5072091;28;20057;-71
2022/08/13 00:21:40;;;;;;;1.25;0.80;;;;;;;19.60;83.68;101846.16;5072015;28;20564;-71
2022/08/13 00:24:05;;;;;;;1.92;1.05;;;;;;;19.52;84.14;101838.19;5073128;28;20029;-71
2022/08/13 00:26:33;;;;;;;2.17;1.20;;;;;;;19.48;84.65;101837.72;5073739;28;20032;-70
2022/08/13 00:29:00;;;;;;;1.92;1.10;;;;;;;19.41;84.49;101834.13;5071702;28;20032;-71
2022/08/13 00:31:27;;;;;;;2.55;1.00;;;;;;;19.38;85.74;101836.34;5072193;28;20598;-71
2022/08/13 00:33:54;;;;;;;1.60;1.13;;;;;;;19.36;84.21;101835.69;5072900;28;20054;-71
2022/08/13 00:36:21;;;;;;;1.40;1.00;;;;;;;19.37;83.70;101832.00;5071487;28;20052;-71
2022/08/13 00:38:48;;;;;;;1.17;0.70;;;;;;;19.37;83.43;101837.38;5073532;28;20492;-71
2022/08/13 00:41:37;;;;;;;1.95;1.15;;;;;;;19.34;82.07;101838.56;5067466;28;20082;-71
2022/08/13 00:44:01;;;;;;;1.48;0.93;;;;;;;19.30;82.23;101832.75;5070459;28;20507;-71
2022/08/13 00:46:26;;;;;;;2.22;1.05;;;;;;;19.35;83.64;101840.22;5072845;28;20028;-71
2022/08/13 00:48:54;;;;;;;1.20;0.73;;;;;;;19.26;83.77;101826.09;5077800;28;20404;-71
2022/08/13 00:51:25;;;;;;;1.40;0.88;;;;;;;19.31;82.04;101831.75;5073439;28;20051;-71
2022/08/13 00:53:54;;;;;;;1.77;1.20;;;;;;;19.28;81.06;101828.59;5068840;28;20040;-71
2022/08/13 00:56:22;;;;;;;1.75;0.80;;;;;;;19.25;80.81;101832.47;5072163;28;20020;-71
2022/08/13 00:58:49;;;;;;;1.02;0.63;;;;;;;19.26;80.38;101831.44;5069128;28;20024;-71
2022/08/13 01:01:15;;;;;;;1.80;0.80;;;;;;;19.22;80.05;101832.00;5075269;28;20024;-71
2022/08/13 01:03:41;;;;;;;1.20;0.90;;;;;;;19.20;80.38;101829.50;5072591;28;20031;-71
2022/08/13 01:06:08;;;;;;;1.40;1.20;;;;;;;19.21;80.59;101833.84;5088447;28;20036;-72
2022/08/13 01:08:40;;;;;;;2.47;1.05;;;;;;;19.18;79.02;101828.03;5072565;28;20602;-71
2022/08/13 01:11:11;;;;;;;1.75;0.98;;;;;;;19.11;79.10;101825.25;5068434;28;20025;-71
2022/08/13 01:13:39;;;;;;;1.80;1.05;;;;;;;19.16;81.39;101830.06;5076094;28;20387;-71
2022/08/13 01:16:13;;;;;;;2.33;1.15;;;;;;;19.11;81.16;101838.63;5069980;28;20154;-71
2022/08/13 01:18:41;;;;;;;1.98;1.20;;;;;;;19.07;80.19;101837.31;5076465;28;20416;-71
2022/08/13 01:21:15;;;;;;;1.65;1.02;;;;;;;19.05;80.25;101834.00;5071968;28;20069;-70
2022/08/13 01:23:45;;;;;;;1.88;1.15;;;;;;;18.88;80.56;101809.28;5076671;28;20080;-70
2022/08/13 01:26:12;;;;;;;2.38;1.17;;;;;;;19.00;82.59;101844.44;5069080;28;20098;-70
2022/08/13 01:28:38;;;;;;;1.38;0.88;;;;;;;18.89;81.36;101827.78;5074892;28;20024;-71
2022/08/13 01:31:06;;;;;;;1.42;1.08;;;;;;;18.97;82.39;101834.09;5070369;28;20025;-71
2022/08/13 01:33:35;;;;;;;1.70;1.58;;;;;;;18.97;83.31;101836.78;5076255;28;20488;-71
2022/08/13 01:36:02;;;;;;;1.38;1.00;;;;;;;18.91;84.53;101838.31;5077386;28;20051;-71
2022/08/13 01:38:29;;;;;;;1.50;1.10;;;;;;;18.87;84.55;101840.50;5072979;28;20134;-71
2022/08/13 01:40:56;;;;;;;1.70;1.00;;;;;;;18.84;85.99;101843.56;5074748;28;20024;-71
2022/08/13 01:43:24;;;;;;;2.38;1.55;;;;;;;18.77;88.41;101828.38;5074406;28;20047;-71
2022/08/13 01:45:51;;;;;;;1.77;1.08;;;;;;;18.78;88.95;101832.75;5075046;28;20497;-71
2022/08/13 01:51:13;;;;;;;5.72;2.00;;;;;;;18.66;89.65;101834.97;5076383;28;20042;-71
2022/08/13 01:53:40;;;;;;;2.20;1.45;;;;;;;18.61;90.70;101832.84;5077131;28;20512;-71
2022/08/13 01:56:07;;;;;;;2.60;1.38;;;;;;;18.59;90.04;101836.72;5078180;28;20039;-71
2022/08/13 01:58:34;;;;;;;2.00;1.38;;;;;;;18.59;89.78;101836.72;5073579;28;20267;-71
2022/08/13 02:01:02;;;;;;;3.25;1.65;;;;;;;18.54;91.15;101837.25;5075185;28;20148;-71
2022/08/13 02:03:28;;;;;;;2.13;1.65;;;;;;;18.54;90.81;101828.41;5075536;28;20043;-71
2022/08/13 02:05:55;;;;;;;2.35;1.48;;;;;;;18.50;90.14;101825.25;5071064;28;20428;-71
2022/08/13 02:08:23;;;;;;;2.50;1.33;;;;;;;18.48;91.02;101827.25;5078858;28;20115;-71
2022/08/13 02:10:52;;;;;;;2.05;1.33;;;;;;;18.42;91.47;101820.81;5074177;28;20051;-71
2022/08/13 02:13:21;;;;;;;4.45;1.77;;;;;;;18.41;90.32;101821.81;5073266;28;20032;-71
2022/08/13 02:15:48;;;;;;;2.05;1.40;;;;;;;18.44;90.91;101825.94;5075224;28;20028;-71
2022/08/13 02:18:17;;;;;;;1.95;1.17;;;;;;;18.42;90.70;101828.81;5076142;28;20024;-71
2022/08/13 02:20:47;;;;;;;3.20;1.48;;;;;;;18.43;91.36;101824.31;5071873;28;20020;-71
2022/08/13 02:23:20;;;;;;;2.28;2.00;;;;;;;18.42;90.40;101827.97;5075485;28;20020;-71
2022/08/13 02:25:47;;;;;;;2.28;1.70;;;;;;;18.38;91.01;101824.84;5073260;28;20021;-71
2022/08/13 02:28:14;;;;;;;3.22;1.63;;;;;;;18.36;90.72;101829.53;5076809;28;20028;-71
2022/08/13 02:30:42;;;;;;;2.58;1.50;;;;;;;18.33;89.28;101829.03;5074314;28;20035;-71
2022/08/13 02:33:08;;;;;;;4.88;2.03;;;;;;;18.31;88.30;101831.88;5074353;28;20048;-71
2022/08/13 02:35:35;;;;;;;2.08;1.80;;;;;;;18.30;87.57;101830.22;5074806;28;20024;-71
2022/08/13 02:38:01;;;;;;;3.38;2.10;;;;;;;18.29;86.53;101834.75;5074203;28;20056;-71
2022/08/13 02:43:12;;;;;;;4.40;1.90;;;;;;;18.30;84.85;101832.91;5075210;28;20102;-71
2022/08/13 02:45:38;;;;;;;2.33;1.67;;;;;;;18.28;85.38;101833.06;5078595;28;20482;-71
2022/08/13 02:48:05;;;;;;;3.13;2.05;;;;;;;18.28;85.00;101829.56;5070540;28;20016;-72
2022/08/13 02:50:31;;;;;;;2.88;2.05;;;;;;;18.29;84.19;101839.25;5074264;28;20090;-71
2022/08/13 02:52:57;;;;;;;2.58;2.20;;;;;;;18.29;83.47;101834.75;5075311;28;20068;-71
2022/08/13 02:55:23;;;;;;;5.72;2.72;;;;;;;18.30;81.99;101835.59;5072740;28;20465;-71
2022/08/13 02:57:50;;;;;;;2.40;1.80;;;;;;;18.32;81.34;101838.09;5080677;28;20479;-71
2022/08/13 03:00:19;;;;;;;4.25;2.47;;;;;;;18.33;80.24;101840.56;5073598;28;20099;-72
2022/08/13 03:02:45;;;;;;;2.80;1.90;;;;;;;18.35;80.31;101843.88;5077979;28;20111;-71
2022/08/13 03:05:18;;;;;;;3.20;1.63;;;;;;;18.33;78.57;101840.56;5078389;28;20488;-71
2022/08/13 03:07:47;;;;;;;4.40;2.28;;;;;;;18.30;78.09;101833.72;5078376;28;20020;-71
2022/08/13 03:10:16;;;;;;;1.98;1.50;;;;;;;18.30;78.55;101830.22;5072874;28;20024;-71
2022/08/13 03:12:45;;;;;;;4.03;1.60;;;;;;;18.38;77.40;101837.34;5072225;28;20427;-71
2022/08/13 03:15:13;;;;;;;1.95;1.52;;;;;;;18.38;77.73;101837.34;5074565;28;20414;-71
2022/08/13 03:17:40;;;;;;;3.38;1.70;;;;;;;18.37;76.99;101841.03;5070992;28;20020;-71
2022/08/13 03:20:08;;;;;;;1.75;1.48;;;;;;;18.36;76.47;101839.41;5060251;28;20043;-71
2022/08/13 03:22:54;;;;;;;1.35;1.10;;;;;;;18.35;76.27;101837.72;5057222;28;20025;-71
2022/08/13 03:25:21;;;;;;;2.13;1.65;;;;;;;18.30;75.47;101838.25;5069866;28;20034;-71
2022/08/13 03:27:48;;;;;;;5.72;2.10;;;;;;;18.31;76.15;101842.56;5074215;28;20064;-71
2022/08/13 03:30:16;;;;;;;3.10;1.48;;;;;;;18.29;75.21;101841.91;5073091;28;20021;-71
2022/08/13 03:32:44;;;;;;;2.28;1.75;;;;;;;18.28;75.89;101845.59;5074603;28;20045;-71
2022/08/13 03:35:22;;;;;;;2.63;1.65;;;;;;;18.24;75.47;101844.28;5076264;28;20024;-71
2022/08/13 03:37:53;;;;;;;4.30;1.90;;;;;;;18.23;74.75;101846.16;5073265;28;20032;-71
2022/08/13 03:40:22;;;;;;;2.63;1.67;;;;;;;18.22;75.37;101841.78;5076348;28;20025;-71
2022/08/13 03:42:48;;;;;;;1.95;1.42;;;;;;;18.21;75.37;101850.00;5068162;28;20086;-71
2022/08/13 03:45:15;;;;;;;2.42;1.70;;;;;;;18.13;75.07;101834.00;5075102;28;20040;-71
2022/08/13 03:47:42;;;;;;;1.95;1.17;;;;;;;18.14;74.76;101841.88;5057166;28;20109;-71
2022/08/13 03:50:09;;;;;;;4.78;2.03;;;;;;;18.18;75.12;101845.00;5078732;28;20025;-71
2022/08/13 03:52:36;;;;;;;5.95;2.20;;;;;;;18.13;74.57;101842.03;5074370;28;20025;-71
2022/08/13 03:55:04;;;;;;;2.30;1.65;;;;;;;18.16;75.06;101847.88;5072272;28;20112;-70
2022/08/13 03:57:30;;;;;;;4.22;1.85;;;;;;;18.15;74.14;101854.19;5072745;28;20052;-70
2022/08/13 03:59:57;;;;;;;2.50;1.73;;;;;;;18.12;75.00;101853.72;5072525;28;20067;-70
2022/08/13 04:02:22;;;;;;;3.75;1.88;;;;;;;18.04;76.55;101847.41;5069425;28;20055;-70
2022/08/13 04:04:48;;;;;;;3.05;2.13;;;;;;;17.91;76.80;101831.13;5073221;28;20467;-71
2022/08/13 04:07:15;;;;;;;2.45;1.90;;;;;;;17.92;77.14;101843.47;5072032;28;20024;-71
2022/08/13 04:09:44;;;;;;;4.05;2.00;;;;;;;17.80;78.23;101834.16;5081170;28;20388;-69
2022/08/13 04:12:12;;;;;;;2.20;1.60;;;;;;;17.87;77.92;101841.31;5066614;28;20492;-70
2022/08/13 04:14:42;;;;;;;4.90;2.13;;;;;;;17.87;78.45;101845.81;5074729;28;20484;-69
2022/08/13 04:17:10;;;;;;;2.47;1.95;;;;;;;17.87;77.72;101837.81;5076366;28;20031;-69
2022/08/13 04:19:40;;;;;;;3.95;1.60;;;;;;;17.79;78.29;101841.34;5073216;28;20047;-69
2022/08/13 04:22:07;;;;;;;3.05;2.17;;;;;;;17.78;78.37;101830.81;5074494;28;20024;-69
2022/08/13 04:24:33;;;;;;;2.97;2.03;;;;;;;17.77;77.75;101835.34;5071354;28;20050;-69
2022/08/13 04:26:59;;;;;;;2.67;1.60;;;;;;;17.82;77.28;101832.16;5074542;28;20455;-69
2022/08/13 04:29:25;;;;;;;2.85;2.40;;;;;;;17.80;77.37;101852.84;5070527;28;20179;-69
2022/08/13 04:31:51;;;;;;;2.97;1.88;;;;;;;17.78;77.59;101841.50;5078294;28;20108;-69
2022/08/13 04:34:22;;;;;;;2.05;1.52;;;;;;;17.80;77.30;101852.84;5060567;28;20033;-69
2022/08/13 04:36:48;;;;;;;2.78;2.28;;;;;;;17.80;77.37;101847.50;5071194;28;20026;-71
2022/08/13 04:39:14;;;;;;;5.78;1.38;;;;;;;17.75;77.04;101841.84;5073483;28;20496;-71
2022/08/13 04:41:39;;;;;;;3.58;1.63;;;;;;;17.82;76.78;101848.19;5041069;28;20052;-70
2022/08/13 04:44:05;;;;;;;1.95;1.67;;;;;;;17.80;77.08;101834.16;5075495;28;20213;-69
2022/08/13 04:46:30;;;;;;;5.10;2.25;;;;;;;17.73;76.45;101819.84;5068519;28;20027;-70
2022/08/13 04:48:55;;;;;;;4.68;2.05;;;;;;;17.91;76.34;101849.00;5081756;28;20032;-70
2022/08/13 04:51:23;;;;;;;1.85;1.50;;;;;;;17.95;75.98;101836.97;5075042;28;20488;-71
2022/08/13 04:53:48;;;;;;;3.65;2.05;;;;;;;18.00;75.38;101846.09;5077488;28;20498;-71
2022/08/13 04:56:14;;;;;;;9.30;2.33;;;;;;;18.04;74.80;101841.25;5077758;28;20111;-71
2022/08/13 04:58:40;;;;;;;3.00;1.50;;;;;;;17.98;75.05;101828.59;5077770;28;20020;-71
2022/08/13 05:01:09;;;;;;;2.58;1.40;;;;;;;18.15;75.45;101843.50;5077172;28;20021;-71
2022/08/13 05:03:38;;;;;;;2.78;1.40;;;;;;;18.20;74.71;101845.66;5071340;28;20013;-71
2022/08/13 05:06:08;;;;;;;1.50;1.10;;;;;;;18.24;73.61;101845.13;5074479;28;20043;-71
2022/08/13 05:08:34;;;;;;;3.53;1.90;;;;;;;18.30;74.88;101840.91;5071844;28;20093;-71
2022/08/13 05:11:00;;;;;;;4.20;1.90;;;;;;;18.34;73.68;101842.25;5080153;28;20472;-69
2022/08/13 05:13:36;;;;;;;2.10;1.20;;;;;;;18.42;74.07;101844.00;5076662;28;20028;-71
2022/08/13 05:16:04;;;;;;;2.20;1.50;;;;;;;18.44;74.46;101850.88;5054976;28;20035;-70
2022/08/13 05:18:32;;;;;;;2.67;1.50;;;;;;;18.42;74.52;101839.53;5076892;28;20097;-70
2022/08/13 05:21:01;;;;;;;2.50;1.73;;;;;;;18.53;74.72;101843.63;5077460;28;20032;-69
2022/08/13 05:23:27;;;;;;;5.38;1.67;;;;;;;18.53;74.38;101842.75;5084176;28;20113;-69
2022/08/13 05:25:53;;;;;;;4.53;2.08;;;;;;;18.58;74.00;101843.09;5076957;28;20044;-71
2022/08/13 05:28:20;;;;;;;4.80;1.90;;;;;;;18.59;73.99;101847.41;5076383;28;20032;-69
2022/08/13 05:30:49;;;;;;;3.08;2.13;;;;;;;18.61;73.47;101848.06;5072628;28;20038;-71
2022/08/13 05:33:20;;;;;;;1.75;1.45;;;;;;;18.64;73.39;101847.69;5080668;28;20051;-71
2022/08/13 05:35:48;;;;;;;3.42;1.35;;;;;;;18.60;73.29;101835.72;5073393;28;20143;-71
2022/08/13 05:38:15;;;;;;;3.25;1.67;;;;;;;18.60;73.91;101830.38;5082893;28;20020;-71
2022/08/13 05:40:42;;;;;;;2.03;1.65;;;;;;;18.66;73.74;101824.28;5078701;28;20450;-71
2022/08/13 05:43:14;;;;;;;4.90;2.63;;;;;;;18.85;74.52;101836.38;5068488;28;20388;-71
2022/08/13 05:45:41;;;;;;;2.38;1.73;;;;;;;18.91;74.04;101841.81;5076315;28;20028;-71
2022/08/13 05:48:07;;;;;;;2.13;1.45;;;;;;;19.01;74.04;101843.41;5081777;28;20032;-69
2022/08/13 05:50:33;;;;;;;2.90;2.00;;;;;;;19.08;73.61;101847.84;5085897;28;20487;-69
2022/08/13 05:53:10;;;;;;;3.58;1.90;;;;;;;19.17;73.67;101839.75;5073572;28;20061;-70
2022/08/13 05:55:40;;;;;;;2.65;1.58;;;;;;;19.26;74.32;101838.66;5079809;28;20031;-69
2022/08/13 05:58:08;;;;;;;2.20;1.67;;;;;;;19.25;73.63;101821.78;5075462;28;20029;-71
2022/08/13 06:03:31;;;;;;;3.53;1.92;;;;;;;19.51;73.35;101841.88;5070656;28;20031;-70
2022/08/13 06:05:59;;;;;;;4.20;2.05;;;;;;;19.59;73.70;101835.63;5082587;28;20038;-69
2022/08/13 06:08:29;;;;;;;3.20;1.90;;;;;;;19.71;72.96;101840.34;5079470;28;20016;-71
2022/08/13 06:11:17;;;;;;;2.22;1.75;;;;;;;19.81;71.88;101844.56;5074867;28;20461;-69
2022/08/13 06:13:45;;;;;;;3.17;1.90;;;;;;;19.94;71.90;101844.75;5080500;28;20047;-71
2022/08/13 06:16:13;;;;;;;2.55;1.80;;;;;;;20.10;71.63;101849.06;5079856;28;20491;-71
2022/08/13 06:18:43;;;;;;;3.88;1.90;;;;;;;20.22;71.40;101852.06;5081879;28;20243;-71
2022/08/13 06:21:11;;;;;;;;;;;;;;;20.32;70.75;101845.38;5080484;28;20027;-71
2022/08/13 06:23:37;;;;;;;2.40;1.50;;;;;;;20.47;70.12;101842.66;5077174;28;19916;-71
2022/08/13 06:26:04;;;;;;;2.05;1.58;;;;;;;20.69;71.42;101845.38;5076013;28;20032;-71
2022/08/13 06:28:32;;;;;;;2.63;1.45;;;;;;;20.83;70.18;101852.50;5078901;28;20032;-69
2022/08/13 06:31:00;;;;;;;1.48;1.27;;;;;;;20.86;69.16;101852.13;5080883;28;20119;-70
2022/08/13 06:33:27;;;;;;;3.97;1.33;;;;;;;21.10;69.49;101850.00;5075651;28;20092;-71
2022/08/13 06:36:02;;;;;;;2.20;1.52;;;;;;;21.28;68.30;101853.03;5079609;28;20054;-71
2022/08/13 06:38:29;;;;;;;2.45;1.15;;;;;;;21.44;67.61;101853.78;5080896;28;20506;-70
2022/08/13 06:40:59;;;;;;;1.85;1.38;;;;;;;21.63;67.06;101858.44;5081046;28;20075;-70
2022/08/13 06:43:29;;;;;;;5.32;2.08;;;;;;;21.84;66.91;101862.91;5073935;28;20399;-70
2022/08/13 06:45:56;;;;;;;5.70;1.52;;;;;;;21.92;66.11;101859.19;5081647;28;20028;-70
2022/08/13 06:48:22;;;;;;;5.47;2.03;;;;;;;22.06;65.99;101860.06;5073312;28;20099;-70
2022/08/13 06:50:50;;;;;;;2.55;1.70;;;;;;;22.19;65.11;101855.56;5077902;28;20130;-71
2022/08/13 06:53:16;;;;;;;2.92;1.40;;;;;;;22.43;64.57;101864.13;5070307;28;20079;-71
2022/08/13 06:55:44;;;;;;;2.20;1.67;;;;;;;22.85;64.38;101848.66;5078459;28;20063;-71
2022/08/13 06:58:10;;;;;;;3.22;1.50;;;;;;;23.27;62.09;101862.72;5074117;28;20489;-71
2022/08/13 07:00:38;;;;;;;1.67;1.25;;;;;;;23.79;60.96;101865.50;5078691;28;20024;-71
2022/08/13 07:03:05;;;;;;;2.45;1.30;;;;;;;24.43;59.39;101861.00;5068896;28;20085;-71
2022/08/13 07:05:37;;;;;;;6.60;1.13;;;;;;;24.77;56.88;101861.66;5075920;28;20086;-71
2022/08/13 07:08:04;;;;;;;3.65;1.73;;;;;;;24.98;56.61;101857.75;5082089;28;20032;-71
2022/08/13 07:10:32;;;;;;;2.75;1.38;;;;;;;25.18;55.36;101857.53;5071879;28;20028;-71
2022/08/13 07:12:59;;;;;;;1.13;0.82;;;;;;;25.85;55.36;101869.28;5078074;28;20060;-71
2022/08/13 07:15:25;;;;;;;2.03;1.27;;;;;;;26.38;54.14;101877.78;5076091;28;20084;-70
2022/08/13 07:17:51;;;;;;;3.40;1.25;;;;;;;26.88;53.71;101882.84;5080308;28;20428;-72
2022/08/13 07:20:17;;;;;;;1.25;0.93;;;;;;;27.47;52.53;101870.13;5080005;28;20035;-71
2022/08/13 07:22:42;;;;;;;1.65;0.98;;;;;;;27.98;52.00;101874.97;5077669;28;20028;-70
2022/08/13 07:25:11;;;;;;;1.70;1.30;;;;;;;28.31;49.91;101880.50;5073561;28;20396;-71
2022/08/13 07:27:40;;;;;;;1.30;1.00;;;;;;;28.82;50.54;101877.03;5077935;28;20028;-71
2022/08/13 07:30:07;;;;;;;3.20;1.20;;;;;;;29.50;48.43;101884.03;5075189;28;20032;-71
2022/08/13 07:32:37;;;;;;;1.13;0.93;;;;;;;29.47;47.97;101887.25;5076274;28;20052;-70
2022/08/13 07:35:04;;;;;;;;;;;;;;;30.23;47.15;101883.00;5051751;28;20025;-70
2022/08/13 07:37:30;;;;;;;4.47;1.08;;;;;;;29.98;47.08;101886.25;5066536;28;20388;-70
2022/08/13 07:39:59;;;;;;;2.60;1.17;;;;;;;29.39;47.09;101882.25;5078521;28;20027;-70
2022/08/13 07:42:27;;;;;;;2.38;0.70;;;;;;;29.90;46.81;101879.38;5072921;28;20039;-71
2022/08/13 07:44:53;;;;;;;4.07;1.00;;;;;;;29.72;46.26;101877.78;5079909;28;20035;-71
2022/08/13 07:47:21;;;;;;;1.20;0.90;;;;;;;30.58;46.24;101881.72;5081057;28;20038;-70
2022/08/13 07:49:48;;;;;;;1.63;1.10;;;;;;;30.90;44.40;101881.69;5074958;28;20411;-71
2022/08/13 07:52:15;;;;;;;2.38;0.88;;;;;;;30.73;43.69;101887.28;5070752;28;20020;-71
2022/08/13 07:54:45;;;;;;;2.72;0.75;;;;;;;31.04;43.66;101885.63;5077377;28;20074;-71
2022/08/13 07:57:10;;;;;;;4.85;0.80;;;;;;;31.28;43.22;101887.94;5073243;28;20024;-71
2022/08/13 07:59:36;;;;;;;2.35;0.90;;;;;;;31.76;42.32;101889.53;5076537;28;20417;-72
2022/08/13 08:02:06;;;;;;;1.60;0.70;;;;;;;31.96;41.75;101896.97;5068706;28;20028;-71
2022/08/13 08:04:37;;;;;;;1.45;1.00;;;;;;;32.16;41.94;101893.53;5072262;28;20030;-71
2022/08/13 08:07:03;;;;;;;1.10;0.77;;;;;;;32.56;41.90;101891.94;5072580;28;20111;-71
2022/08/13 08:09:30;;;;;;;1.67;0.90;;;;;;;33.16;41.23;101896.81;5077927;28;20029;-71
2022/08/13 08:14:44;;;;;;;0.90;0.70;;;;;;;33.58;41.04;101890.13;5075613;28;20105;-71
2022/08/13 08:17:11;;;;;;;0.85;0.50;;;;;;;34.04;40.14;101891.81;5073668;28;20032;-72
2022/08/13 08:19:47;;;;;;;2.55;1.00;;;;;;;34.71;38.63;101893.03;5076993;28;20036;-71
2022/08/13 08:22:15;;;;;;;2.97;0.95;;;;;;;34.02;39.59;101892.13;5073949;28;20043;-72
2022/08/13 08:24:47;;;;;;;3.10;0.93;;;;;;;34.73;37.99;101893.53;5080415;28;20051;-71
2022/08/13 08:27:16;;;;;;;1.75;0.98;;;;;;;34.88;37.22;101898.06;5077755;28;20028;-71
2022/08/13 08:29:41;;;;;;;1.67;1.17;;;;;;;34.50;37.29;101867.69;5083233;28;20024;-71
2022/08/13 08:32:10;;;;;;;1.48;0.98;;;;;;;35.39;38.01;101883.81;5080648;28;20102;-71
2022/08/13 08:34:38;;;;;;;2.07;0.70;;;;;;;35.86;37.38;101891.47;5074930;28;20032;-71
2022/08/13 08:37:04;;;;;;;0.85;0.68;;;;;;;36.18;36.12;101897.06;5077384;28;20274;-71
2022/08/13 08:42:36;;;;;;;1.20;0.88;;;;;;;35.29;36.09;101891.34;5079242;28;20086;-72
2022/08/13 08:45:08;;;;;;;1.92;0.82;;;;;;;35.25;36.63;101893.03;5077563;28;20115;-71
2022/08/13 08:47:37;;;;;;;2.00;0.90;;;;;;;35.42;36.66;101887.91;5078189;28;20024;-71
2022/08/13 08:50:05;;;;;;;1.20;0.50;;;;;;;36.70;37.10;101886.06;5078802;28;20392;-72
2022/08/13 08:55:16;;;;;;;2.47;0.75;;;;;;;37.23;34.89;101882.88;5076265;28;20415;-72
2022/08/13 08:57:46;;;;;;;0.93;0.70;;;;;;;36.02;35.53;101879.16;5077931;28;20028;-72
2022/08/13 09:00:15;;;;;;;3.50;0.90;;;;;;;35.19;36.29;101879.41;5076678;28;20024;-72
2022/08/13 09:02:41;;;;;;;2.50;0.93;;;;;;;35.20;36.57;101878.28;5074801;28;20391;-72
2022/08/13 09:05:15;;;;;;;1.05;0.80;;;;;;;35.75;36.78;101863.34;5079147;28;20028;-72
2022/08/13 09:07:45;;;;;;;1.55;0.80;;;;;;;36.20;34.44;101872.84;5080107;28;20047;-72
2022/08/13 09:10:11;;;;;;;3.28;0.80;;;;;;;36.07;35.85;101870.84;5074255;28;20539;-72
2022/08/13 09:12:41;;;;;;;2.70;0.70;;;;;;;37.37;34.61;101873.78;5078267;28;20032;-72
2022/08/13 09:15:07;;;;;;;2.10;1.08;;;;;;;37.20;34.83;101872.50;5075230;28;20028;-72
2022/08/13 09:17:34;;;;;;;4.55;0.95;;;;;;;38.13;34.24;101876.00;5076263;28;20028;-72
2022/08/13 09:20:00;;;;;;;4.22;0.88;;;;;;;38.15;34.05;101871.81;5077427;28;20044;-72
2022/08/13 09:22:25;;;;;;;1.83;0.68;;;;;;;38.53;33.38;101870.63;5076140;28;20035;-72
2022/08/13 09:24:58;;;;;;;1.90;0.60;;;;;;;38.37;32.31;101867.41;5074858;28;20028;-72
2022/08/13 09:27:26;;;;;;;3.13;0.68;;;;;;;37.09;34.53;101867.50;5076175;28;20067;-72
2022/08/13 09:29:51;;;;;;;1.00;0.77;;;;;;;37.49;34.56;101863.06;5075473;28;20052;-71
2022/08/13 09:32:17;;;;;;;1.30;0.75;;;;;;;38.63;32.69;101862.06;5076639;28;20149;-71
2022/08/13 09:34:45;;;;;;;2.35;1.05;;;;;;;37.80;34.01;101860.47;5074251;28;20039;-71
2022/08/13 09:37:12;;;;;;;1.00;0.70;;;;;;;37.47;32.26;101857.88;5078343;28;20028;-71
2022/08/13 09:39:49;;;;;;;2.95;0.85;;;;;;;38.07;31.99;101865.09;5078927;28;20423;-72
2022/08/13 09:42:20;;;;;;;3.03;0.63;;;;;;;37.53;33.58;101864.09;5074383;28;20020;-72
2022/08/13 09:44:46;;;;;;;1.10;0.75;;;;;;;37.24;32.29;101865.25;5070615;28;20429;-72
2022/08/13 09:47:11;;;;;;;3.03;0.70;;;;;;;38.82;34.51;101873.69;5078099;28;20024;-71
2022/08/13 09:49:39;;;;;;;1.88;0.82;;;;;;;40.14;30.99;101859.03;5074231;28;20037;-71
2022/08/13 09:52:05;;;;;;;0.82;0.60;;;;;;;39.70;30.98;101859.03;5077288;28;20435;-71
2022/08/13 09:54:32;;;;;;;2.40;0.77;;;;;;;37.99;32.38;101862.25;5076451;28;20073;-72
2022/08/13 09:56:58;;;;;;;0.65;0.45;;;;;;;38.74;31.60;101854.34;5077842;28;20081;-71
2022/08/13 09:59:24;;;;;;;0.90;0.60;;;;;;;41.11;29.80;101854.84;5071708;28;20412;-71
2022/08/13 10:01:50;;;;;;;0.90;0.68;;;;;;;38.86;31.80;101847.09;5070973;28;20039;-72
2022/08/13 10:04:18;;;;;;;3.42;0.60;;;;;;;38.79;31.62;101843.19;5070692;28;20395;-72
2022/08/13 10:06:47;;;;;;;1.10;0.60;;;;;;;39.45;30.44;101851.53;5070835;28;20044;-72
2022/08/13 10:09:13;;;;;;;1.92;0.60;;;;;;;40.19;30.58;101844.22;5072696;28;20036;-72
2022/08/13 10:11:39;;;;;;;1.35;0.70;;;;;;;39.65;30.66;101845.38;5073482;28;20480;-72
2022/08/13 10:14:04;;;;;;;0.77;0.60;;;;;;;39.70;30.42;101842.47;5075151;28;20028;-72
2022/08/13 10:16:29;;;;;;;1.08;0.77;;;;;;;37.35;32.10;101837.53;5073224;28;20116;-72
2022/08/13 10:18:55;;;;;;;0.90;0.52;;;;;;;39.29;31.85;101838.16;5072457;28;20348;-72
2022/08/13 10:21:21;;;;;;;1.42;0.70;;;;;;;39.63;30.36;101833.81;5077892;28;20028;-72
2022/08/13 10:23:46;;;;;;;1.00;0.60;;;;;;;38.96;30.32;101823.97;5075288;28;20032;-72
2022/08/13 10:26:11;;;;;;;1.67;1.02;;;;;;;37.88;31.16;101820.34;5074690;28;20035;-72
2022/08/13 10:28:37;;;;;;;2.45;0.60;;;;;;;36.82;32.54;101816.81;5072116;28;20024;-72
2022/08/13 10:31:07;;;;;;;3.33;0.85;;;;;;;36.10;33.36;101826.25;5077395;28;20028;-70
2022/08/13 10:33:35;;;;;;;3.53;0.80;;;;;;;37.58;32.06;101814.44;5077191;28;20047;-70
2022/08/13 10:36:00;;;;;;;1.80;0.90;;;;;;;37.98;32.02;101811.84;5074156;28;20115;-70
2022/08/13 10:38:29;;;;;;;1.25;0.70;;;;;;;36.99;31.60;101800.50;5076575;28;20108;-71
2022/08/13 10:40:56;;;;;;;1.42;0.90;;;;;;;36.80;33.01;101819.03;5075148;28;20032;-71
2022/08/13 10:43:22;;;;;;;3.28;0.90;;;;;;;37.19;33.99;101810.28;5076711;28;20307;-72
2022/08/13 10:45:56;;;;;;;1.48;0.80;;;;;;;38.86;32.62;101819.50;5077428;28;20032;-71
2022/08/13 10:48:25;;;;;;;1.17;0.82;;;;;;;38.80;31.02;101811.69;5071798;28;20023;-72
2022/08/13 10:50:52;;;;;;;1.52;0.80;;;;;;;39.84;30.19;101800.88;5073816;28;20036;-71
2022/08/13 10:56:03;;;;;;;0.57;0.50;;;;;;;38.78;31.21;101794.63;5071603;28;20062;-72
2022/08/13 10:58:29;;;;;;;0.88;0.45;;;;;;;38.55;31.39;101804.94;5075552;28;20124;-72
2022/08/13 11:00:55;;;;;;;1.73;0.80;;;;;;;37.47;33.24;101813.81;5074519;28;20027;-71
2022/08/13 11:03:21;;;;;;;1.90;0.70;;;;;;;38.26;32.79;101789.66;5076305;28;20032;-71
2022/08/13 11:05:47;;;;;;;0.82;0.63;;;;;;;39.75;31.06;101799.22;5077129;28;20052;-72
2022/08/13 11:08:14;;;;;;;0.80;0.60;;;;;;;40.86;30.52;101785.47;5074078;28;20391;-72
2022/08/13 11:10:39;;;;;;;1.35;0.70;;;;;;;38.69;31.17;101797.38;5072866;28;20028;-72
2022/08/13 11:13:05;;;;;;;0.90;0.68;;;;;;;38.27;32.20;101794.06;5071962;28;20039;-71
2022/08/13 11:15:32;;;;;;;1.08;0.77;;;;;;;37.09;32.96;101780.25;5073510;28;20099;-71
2022/08/13 11:17:57;;;;;;;2.70;0.75;;;;;;;39.36;31.95;101799.03;5073562;28;20092;-72
2022/08/13 11:20:24;;;;;;;1.00;0.57;;;;;;;39.19;31.78;101799.81;5073234;28;20024;-72
2022/08/13 11:22:54;;;;;;;2.63;0.75;;;;;;;40.91;30.29;101792.75;5072357;28;20327;-72
2022/08/13 11:25:20;;;;;;;1.15;0.73;;;;;;;41.76;30.01;101779.78;5073332;28;20028;-72
2022/08/13 11:27:46;;;;;;;0.80;0.50;;;;;;;40.45;30.41;101783.34;5074045;28;20036;-72
2022/08/13 11:30:14;;;;;;;0.88;0.40;;;;;;;40.58;30.12;101787.84;5071624;28;20066;-71
2022/08/13 11:32:40;;;;;;;1.38;0.80;;;;;;;39.59;30.57;101774.03;5071288;28;20057;-72
2022/08/13 11:35:06;;;;;;;1.13;0.70;;;;;;;39.15;31.43;101775.94;5071792;28;20034;-72
2022/08/13 11:37:32;;;;;;;1.85;0.60;;;;;;;38.85;31.54;101768.22;5074372;28;20397;-72
2022/08/13 11:39:57;;;;;;;0.88;0.60;;;;;;;38.12;32.40;101772.41;5070589;28;20032;-72
2022/08/13 11:42:22;;;;;;;1.15;0.70;;;;;;;38.32;31.64;101771.84;5076023;28;20029;-72
2022/08/13 11:44:48;;;;;;;0.93;0.60;;;;;;;38.41;33.27;101763.63;5069937;28;20012;-72
2022/08/13 11:47:13;;;;;;;1.00;0.70;;;;;;;38.05;32.41;101764.59;5076778;28;20107;-72
2022/08/13 11:49:39;;;;;;;2.75;0.90;;;;;;;37.26;32.74;101774.13;5071427;28;20028;-72
2022/08/13 11:52:04;;;;;;;1.38;0.70;;;;;;;37.41;32.61;101760.00;5075454;28;20032;-72
2022/08/13 11:54:30;;;;;;;2.65;0.80;;;;;;;38.58;31.65;101765.69;5070971;28;20020;-72